Tiempo atmosférico en la estación meteorológica de Aranda De Duero, Burgos (790 m.)

Fecha
DESCASC
Temp. máxima en grados centígrados (hora)
DESCASC
Temp. mínima en grados centígrados (hora)
DESCASC
Temp. media en grados centígrados
DESCASC
Racha de viento máxima en m/sg (hora)
DESCASC
Velocidad máxima media en intervalos de 10 minutos(hora)
DESCASC
Precipitaciones diarias en mm
DESCASC
Precipitaciones de 00:00 a 06:00 en mm
DESCASC
Precipitaciones de 06:00 a 12:00 en mm
DESCASC
Precipitaciones de 12:00 a 18:00 en mm
DESCASC
Precipitaciones de 18:00 a 24:00 en mm
DESCASC
21-08-2017 37.8 (17:40) 14.1 (07:20) 25.9 7.22 (11:10) 3.89 (11:10) 0 0 0 0 0
20-08-2017 33.9 (17:40) 8.8 (07:30) 21.4 8.61 (19:50) 3.89 (19:50) 0 0 0 0 0
19-08-2017 30.8 (15:50) 11.9 (07:50) 21.3 8.33 (16:30) 3.89 (17:20) 0 0 0 0 0
18-08-2017 31.7 (17:00) 12.1 (07:40) 21.9 8.06 (18:10) 3.33 (12:50) 0 0 0 0 0
17-08-2017 35.1 (17:00) 12.4 (00:00) 23.7 7.22 (15:50) 3.06 (09:10) 0 0 0 0 0
16-08-2017 32.5 (17:40) 11.2 (00:00) 21.8 6.67 (16:30) 2.5 (15:40) 0 0 0 0 0
15-08-2017 32.7 (15:40) 17.2 (00:00) 25 19.17 (00:50) 8.61 (00:50) 0.6 0.6 0 0 0
14-08-2017 36.3 (16:30) 13.2 (06:40) 24.7 14.17 (18:00) 5.56 (22:20) 0.4 0 0 0 0.4
13-08-2017 33.9 (17:40) 13.7 (00:00) 23.8 8.06 (10:00) 4.72 (10:00) 0 0 0 0 0
12-08-2017 30.9 (16:40) 5.9 (00:00) 18.4 5.83 (18:40) 2.5 (19:50) 0 0 0 0 0
11-08-2017 26.2 (17:30) 5.9 (00:00) 16.1 10.28 (19:00) 4.72 (19:00) 0 0 0 0 0
10-08-2017 22.6 (17:40) 5 (00:00) 13.8 10.28 (18:40) 4.44 (18:10) 0 0 0 0 0
09-08-2017 21 (13:20) 8.9 (00:00) 14.9 12.5 (15:40) 5.56 (17:40) 0 0 0 0 0
08-08-2017 26 (18:00) 11.3 (00:00) 18.7 9.72 (15:00) 3.61 (12:00) 0 0 0 0 0
07-08-2017 33.4 (16:40) 12 (00:00) 22.7 14.44 (15:20) 4.72 (13:20) 0 0 0 0 0
06-08-2017 32.6 (17:20) 12.5 (00:00) 22.5 9.17 (19:20) 4.44 (19:30) 0 0 0 0 0
05-08-2017 35.1 (16:20) 13.6 (00:00) 24.3 10.28 (18:40) 5 (19:00) 0 0 0 0 0
04-08-2017 35.9 (17:30) 16.5 (00:00) 26.2 6.39 (15:40) 1.94 (18:10) 0 0 0 0 0
03-08-2017 35.4 (17:30) 10.8 (00:00) 23.1 8.89 (17:10) 3.06 (17:00) 0 0 0 0 0
02-08-2017 34.1 (17:30) 10.8 (00:00) 22.4 7.78 (15:30) 2.78 (18:00) 0 0 0 0 0
01-08-2017 32.5 (17:20) 12.2 (00:00) 22.3 10.28 (16:40) 4.44 (16:10) 0 0 0 0 0
31-07-2017 32.3 (16:10) 11.1 (00:00) 21.7 10.28 (16:00) 3.61 (16:00) 0 0 0 0 0
30-07-2017 34.5 (16:50) 13.8 (00:00) 24.2 12.78 (17:30) 4.72 (17:40) 0 0 0 0 0
29-07-2017 34.9 (18:00) 12.1 (00:00) 23.5 11.11 (15:10) 4.44 (17:10) 0 0 0 0 0
28-07-2017 35.2 (17:40) 12.4 (00:00) 23.8 8.61 (17:20) 3.06 (15:20) 0 0 0 0 0
27-07-2017 35.4 (17:40) 12 (00:00) 23.7 9.72 (16:10) 3.33 (14:20) 0 0 0 0 0
26-07-2017 31.3 (18:20) 9.2 (00:00) 20.2 6.67 (15:50) 3.33 (16:30) 0 0 0 0 0
25-07-2017 26.1 (17:30) 9.5 (00:00) 17.8 10.28 (18:20) 5 (18:10) 0 0 0 0 0
24-07-2017 28.4 (17:20) 11.8 (00:00) 20.1 9.17 (19:00) 3.89 (16:20) 0 0 0 0 0
23-07-2017 31.2 (17:20) 10.8 (00:00) 21 9.17 (18:10) 3.61 (17:30) 0 0 0 0 0

Gráficas

Temp. máximas Temp. mínimas Temp. medias Precipitaciones Rachas de viento máximas Velocidades máximas media en intervalos de 10 minutos

Datos horarios

Fecha y hora oficial Temperatura (ºC) Velocidad del viento (km/h) Dirección del viento Racha (km/h) Dirección de racha Precipitación (mm) Presión (hPa) Tendencia (hPa) Humedad (%)
2017-08-21 23:00:00 27.5 8 Sudoeste 20 Sudoeste 0 926.5 1.2 28
2017-08-21 22:00:00 25.6 2 Sudeste 10 Este 0 925.8 0.2 28
2017-08-21 21:00:00 30.2 0 Calma 5 Norte 0 925.4 -0.3 24
2017-08-21 20:00:00 34.1 3 Norte 12 Noroeste 0 925.3 -0.7 12
2017-08-21 19:00:00 35.4 5 Noroeste 24 Norte 0 925.6 -1.3 10
2017-08-21 18:00:00 36.7 4 Noroeste 19 Sudoeste 0 925.7 -2.1 10
2017-08-21 17:00:00 36.5 4 Nordeste 18 Este 0 926 -2.3 10
2017-08-21 16:00:00 34.9 8 Nordeste 23 Nordeste 0 926.9 -2 11
2017-08-21 15:00:00 33.8 6 Nordeste 17 Este 0 927.8 -1.7 13
2017-08-21 14:00:00 32.5 5 Nordeste 19 Este 0 928.3 -1.3 14
2017-08-21 13:00:00 31.3 3 Sudeste 19 Este 0 928.9 -1.1 15
2017-08-21 12:00:00 28.2 8 Este 26 Sudeste 0 929.5 -0.7 19
2017-08-21 11:00:00 25.2 13 Sudeste 24 Este 0 929.6 -0.6 22
2017-08-21 10:00:00 21.4 10 Este 25 Este 0 930 0 30
2017-08-21 09:00:00 17.9 13 Este 23 Este 0 930.2 0.1 37
2017-08-21 08:00:00 15.3 5 Este 13 Este 0 930.2 -0.1 48
2017-08-21 07:00:00 14.2 6 Este 14 Este 0 930 -0.8 48
2017-08-21 06:00:00 14.3 9 Este 17 Este 0 930.1 -0.9 46
2017-08-21 05:00:00 15.4 7 Este 14 Este 0 930.3 -0.8 40
2017-08-21 04:00:00 14.8 5 Este 9 Este 0 930.8 -0.3 45
2017-08-21 03:00:00 14.4 3 Este 8 Sudeste 0 931 0 46
2017-08-21 02:00:00 14.6 3 Este 6 Este 0 931.1 0.2 54
2017-08-21 01:00:00 16.1 4 Sudeste 7 Sudeste 0 931.1 0.6 42
2017-08-21 00:00:00 17.6 2 Este 8 Sudoeste 0 931 1.1 37
2017-08-20 23:00:00 20.7 3 Sur 10 Noroeste 0 930.9 1.1 29
2017-08-20 22:00:00 24.1 2 Oeste 21 Norte 0 930.5 0.6 23
2017-08-20 21:00:00 26.8 10 Norte 28 Norte 0 929.9 -0.4 17
2017-08-20 20:00:00 29.5 14 Noroeste 31 Noroeste 0 929.8 -0.8 14
2017-08-20 19:00:00 31.2 11 Noroeste 26 Noroeste 0 929.9 -1.3 13
2017-08-20 18:00:00 32.3 6 Norte 24 Noroeste 0 930.3 -1.4 10
2017-08-20 17:00:00 33.2 4 Sudoeste 18 Sudeste 0 930.6 -1.6 13
2017-08-20 16:00:00 31.1 2 Sur 16 Sudeste 0 931.2 -1.4 15
2017-08-20 15:00:00 29 4 Sudeste 19 Este 0 931.7 -1.3 18
2017-08-20 14:00:00 27.8 3 Sudoeste 18 Norte 0 932.2 -1.1 22
2017-08-20 13:00:00 26.4 5 Norte 13 Norte 0 932.6 -0.6 27
2017-08-20 12:00:00 23.6 5 Este 16 Este 0 933 -0.1 34
2017-08-20 11:00:00 21.1 3 Nordeste 11 Sudeste 0 933.3 0.5 41
2017-08-20 10:00:00 18 3 Este 8 Este 0 933.2 0.9 47
2017-08-20 09:00:00 14.6 2 Oeste 7 Noroeste 0 933.1 1 54
2017-08-20 08:00:00 9.7 0 Calma 4 Sudoeste 0 932.8 0.7 76
2017-08-20 07:00:00 9.3 0 Calma 4 Sudoeste 0 932.3 0.1 78
2017-08-20 06:00:00 10.2 0 Calma 3 Este 0 932.1 0 77
2017-08-20 05:00:00 10.9 0 Calma 4 Sudoeste 0 932.1 -0.1 73
2017-08-20 04:00:00 11.7 0 Calma 4 Sudoeste 0 932.2 0.1 73
2017-08-20 03:00:00 12.6 0 Calma 5 Sudoeste 0 932.1 0.2 70
2017-08-20 02:00:00 13.6 3 Sudoeste 7 Sudoeste 0 932.2 0.6 66
2017-08-20 01:00:00 15 3 Sudoeste 6 Sudoeste 0 932.1 1.4 63
2017-08-20 00:00:00 17.4 2 Sudoeste 15 Noroeste 0 931.9 2.2 55
2017-08-19 23:00:00 19.5 6 Noroeste 21 Noroeste 0 931.6 2.4 49
2017-08-19 22:00:00 22.3 8 Noroeste 24 Noroeste 0 930.7 1.6 38
2017-08-19 21:00:00 25.3 11 Noroeste 26 Norte 0 929.7 0.4 30
2017-08-19 20:00:00 27.6 12 Noroeste 27 Noroeste 0 929.2 -0.1 23
2017-08-19 19:00:00 28.4 8 Noroeste 30 Noroeste 0 929.1 -0.2 24
2017-08-19 18:00:00 29.3 13 Norte 29 Noroeste 0 929.3 -0.2 24
2017-08-19 17:00:00 30.3 11 Noroeste 30 Noroeste 0 929.3 -0.6 23
2017-08-19 16:00:00 30.4 10 Noroeste 26 Noroeste 0 929.3 -1.2 26
2017-08-19 15:00:00 28.9 4 Noroeste 16 Este 0 929.5 -1.3 28
2017-08-19 14:00:00 27.2 4 Noroeste 18 Este 0 929.9 -1 31
2017-08-19 13:00:00 25.9 5 Este 16 Nordeste 0 930.5 -0.4 35
2017-08-19 12:00:00 24 7 Nordeste 18 Este 0 930.8 0.1 41
2017-08-19 11:00:00 22.1 8 Este 21 Este 0 930.9 0.5 47
2017-08-19 10:00:00 19.8 8 Este 17 Este 0 930.9 0.6 54
2017-08-19 09:00:00 17.5 8 Este 14 Nordeste 0 930.7 0.7 65
2017-08-19 08:00:00 12.6 0 Calma -- -- 0 930.4 0.5 78
2017-08-19 07:00:00 12.4 2 Sudoeste 4 Oeste 0 930.3 0.5 78
2017-08-19 06:00:00 13.9 0 Calma 9 Norte 0 930 0.5 75
2017-08-19 05:00:00 15.6 4 Nordeste 12 Norte 0 929.9 0.4 73
2017-08-19 04:00:00 16.5 5 Norte 12 Nordeste 0 929.8 0.4 69
2017-08-19 03:00:00 15.2 0 Calma 5 Oeste 0 929.5 -0.1 70
2017-08-19 02:00:00 16.8 0 Calma 6 Sudoeste 0 929.5 0.4 67
2017-08-19 01:00:00 18.2 3 Sudoeste 7 Sudoeste 0 929.4 0.8 63
2017-08-19 00:00:00 19.4 5 Norte 16 Noroeste 0 929.6 1.5 61
2017-08-18 23:00:00 21.3 5 Noroeste 14 Noroeste 0 929.1 1.2 52
2017-08-18 22:00:00 23.8 5 Norte 16 Norte 0 928.6 0.7 41
2017-08-18 21:00:00 25.8 8 Norte 20 Norte 0 928.1 0.3 34
2017-08-18 20:00:00 27.6 10 Norte 27 Norte 0 927.9 -0.2 30
2017-08-18 19:00:00 29.7 7 Noroeste 29 Norte 0 927.9 -0.7 25
2017-08-18 18:00:00 30.6 5 Norte 27 Noroeste 0 927.8 -1.1 22
2017-08-18 17:00:00 31.6 6 Oeste 24 Noroeste 0 928.1 -1.1 21
2017-08-18 16:00:00 30.3 9 Noroeste 27 Noroeste 0 928.6 -0.8 23
2017-08-18 15:00:00 30.3 7 Oeste 24 Sudoeste 0 928.9 -0.6 24
2017-08-18 14:00:00 29.1 5 Oeste 23 Noroeste 0 929.2 -0.4 27
2017-08-18 13:00:00 27.6 8 Noroeste 27 Oeste 0 929.4 -0.1 32
2017-08-18 12:00:00 26.9 8 Oeste 22 Oeste 0 929.5 0.6 32
2017-08-18 11:00:00 25.3 5 Oeste 19 Oeste 0 929.6 0.5 34
2017-08-18 10:00:00 23 4 Oeste 13 Oeste 0 929.5 1 37
2017-08-18 09:00:00 18.1 2 Nordeste 6 Este 0 928.9 0.6 58
2017-08-18 08:00:00 12.7 2 Sudoeste 4 Sudoeste 0 929.1 1.1 65
2017-08-18 07:00:00 12.5 0 Calma 5 Sudeste 0 928.5 0.4 69
2017-08-18 06:00:00 13.1 2 Sudoeste 8 Oeste 0 928.3 -0.2 67
2017-08-18 05:00:00 14.7 0 Calma 4 Este 0 928 -0.9 63
2017-08-18 04:00:00 16.2 2 Sur 9 Sudeste 0 928.1 -0.9 65
2017-08-18 03:00:00 17.1 4 Este 6 Sudeste 0 928.5 -0.3 60
2017-08-18 02:00:00 17.2 0 Calma 5 Este 0 928.9 0.4 60
2017-08-18 01:00:00 18.1 2 Sudeste 8 Este 0 929 1 59
2017-08-18 00:00:00 19.3 0 Calma 5 Sudoeste 0 928.8 0.9 56
2017-08-17 23:00:00 21.7 0 Calma 5 Sudoeste 0 928.5 0.7 47
2017-08-17 22:00:00 26.2 3 Sudoeste 5 Sudoeste 0 928 0.1 28
2017-08-17 21:00:00 30.3 2 Oeste 12 Oeste 0 927.9 -0.1 21
2017-08-17 20:00:00 32.1 4 Oeste 24 Noroeste 0 927.8 -0.7 18
2017-08-17 19:00:00 33.2 6 Oeste 23 Norte 0 927.9 -1.1 16
2017-08-17 18:00:00 34.8 8 Oeste 20 Oeste 0 928 -1.6 14
2017-08-17 17:00:00 35.1 3 Sudoeste 18 Sudoeste 0 928.5 -1.7 14
2017-08-17 16:00:00 33.4 6 Oeste 26 Sudoeste 0 929 -1.6 17
2017-08-17 15:00:00 32.4 5 Oeste 23 Sudoeste 0 929.6 -1.4 18
2017-08-17 14:00:00 31.1 7 Sudoeste 23 Sudoeste 0 930.2 -1 19
2017-08-17 13:00:00 30.2 4 Sudoeste 13 Sudoeste 0 930.6 -0.7 23
2017-08-17 12:00:00 27.4 3 Nordeste 11 Este 0 931 -0.3 31
2017-08-17 11:00:00 25.3 4 Este 19 Este 0 931.2 0.2 37
2017-08-17 10:00:00 22.2 9 Este 22 Este 0 931.3 0.7 44
2017-08-17 09:00:00 19.5 9 Este 21 Este 0 931.3 0.8 52
2017-08-17 08:00:00 14.9 3 Sudeste 12 Este 0 931 0.2 67
2017-08-17 07:00:00 16 6 Este 16 Este 0 930.6 -0.2 66
2017-08-17 06:00:00 13.5 5 Este 11 Este 0 930.5 -0.5 79
2017-08-17 05:00:00 12.9 2 Este 7 Sudeste 0 930.8 -0.2 67
2017-08-17 04:00:00 13.4 2 Este 5 Sudeste 0 930.8 -0.3 57
2017-08-17 03:00:00 14 0 Calma 3 Este 0 931 0.1 53
2017-08-17 02:00:00 14.7 0 Calma 5 Sudeste 0 931 0.3 50
2017-08-17 01:00:00 15.7 0 Calma 6 Este 0 931.1 0.7 50
2017-08-17 00:00:00 16.6 0 Calma 4 Sudoeste 0 930.9 0.8 47
2017-08-16 23:00:00 19.4 2 Sudoeste 5 Sudoeste 0 930.7 1 39
2017-08-16 22:00:00 23.7 2 Sudoeste 5 Sudoeste 0 930.4 0.9 30
2017-08-16 21:00:00 27.7 2 Noroeste 12 Oeste 0 930.1 0.3 21
2017-08-16 20:00:00 29.9 4 Oeste 22 Oeste 0 929.7 -0.3 16
2017-08-16 19:00:00 29.9 3 Norte 22 Sudoeste 0 929.5 -0.8 15
2017-08-16 18:00:00 32.3 5 Sudoeste 23 Sudoeste 0 929.8 -0.8 11
2017-08-16 17:00:00 31.8 6 Oeste 24 Oeste 0 930 -1.1 14
2017-08-16 16:00:00 30.3 7 Oeste 23 Noroeste 0 930.3 -1.2 19
2017-08-16 15:00:00 28.7 8 Noroeste 23 Oeste 0 930.6 -1.2 24
2017-08-16 14:00:00 27.3 5 Oeste 23 Norte 0 931.1 -0.7 31
2017-08-16 13:00:00 25.8 6 Oeste 21 Noroeste 0 931.5 -0.3 39
2017-08-16 12:00:00 23.9 5 Sudoeste 20 Oeste 0 931.8 0.1 44
2017-08-16 11:00:00 22.1 4 Oeste 16 Noroeste 0 931.8 0.5 45
2017-08-16 10:00:00 19.6 3 Sudoeste 9 Noroeste 0 931.8 1 59
2017-08-16 09:00:00 15.5 0 Calma 4 Norte 0 931.7 1.3 79
2017-08-16 08:00:00 11.5 2 Sudeste 3 Sudeste 0 931.3 1.2 84
2017-08-16 07:00:00 11.7 2 Sudoeste 3 Sudoeste 0 930.8 0.6 82
2017-08-16 06:00:00 12.9 0 Calma 4 Sudoeste 0 930.4 0.3 82
2017-08-16 05:00:00 13.9 0 Calma 5 Sudoeste 0 930.1 0.1 80
2017-08-16 04:00:00 14.9 2 Sudoeste 6 Oeste 0 930.2 0.5 78
2017-08-16 03:00:00 15.8 2 Sudoeste 9 Noroeste 0 930.1 0.3 75
2017-08-16 02:00:00 16.7 0 Calma 9 Sudoeste 0 930 0.7 70
2017-08-16 01:00:00 17.8 4 Sudoeste 8 Oeste 0 929.7 1.2 63
2017-08-16 00:00:00 18.7 3 Oeste 9 Oeste 0 929.8 1.9 54
2017-08-15 23:00:00 19.5 4 Oeste 8 Noroeste 0 929.3 1.9 46
2017-08-15 22:00:00 23.7 0 Calma 5 Sudoeste 0 928.5 1.2 40
2017-08-15 21:00:00 27.5 3 Oeste 16 Noroeste 0 927.9 0.3 21
2017-08-15 20:00:00 29.5 5 Oeste 21 Noroeste 0 927.4 -0.4 18
2017-08-15 19:00:00 30.4 6 Oeste 29 Noroeste 0 927.3 -0.4 17
2017-08-15 18:00:00 32.4 8 Oeste 31 Oeste 0 927.6 -0.2 14
2017-08-15 17:00:00 31.8 8 Oeste 37 Oeste 0 927.8 -0.2 16
2017-08-15 16:00:00 31.9 13 Sudoeste 48 Oeste 0 927.7 -0.6 13
2017-08-15 15:00:00 31.9 13 Oeste 44 Sudoeste 0 927.8 -0.6 19
2017-08-15 14:00:00 30 4 Oeste 24 Oeste 0 928 -0.4 26
2017-08-15 13:00:00 28.5 5 Oeste 18 Oeste 0 928.3 0.2 28
2017-08-15 12:00:00 26.6 2 Oeste 12 Oeste 0 928.4 0.5 34
2017-08-15 11:00:00 24.2 3 Oeste 14 Sudoeste 0 928.4 1.1 36
2017-08-15 10:00:00 22 10 Sudoeste 21 Sudoeste 0 928.1 1.2 42
2017-08-15 09:00:00 18.5 0 Calma 14 Este 0 927.9 1.2 65
2017-08-15 08:00:00 17.3 6 Sudeste 14 Sudeste 0 927.3 0.4 65
2017-08-15 07:00:00 17.8 5 Este 13 Sudeste 0 926.9 -0.1 62
2017-08-15 06:00:00 17.9 3 Este 16 Este 0 926.7 -0.3 64
2017-08-15 05:00:00 19.1 5 Este 10 Este 0 926.9 0 60
2017-08-15 04:00:00 19.6 3 Este 12 Este 0 927 0.8 59
2017-08-15 03:00:00 21.2 6 Este 19 Sudeste 0 927 -0.1 50
2017-08-15 02:00:00 21.8 12 Este 21 Sudeste 0.2 926.9 -1.5 45
2017-08-15 01:00:00 23.4 4 Sur 69 Sudoeste 0.4 926.2 0 45
2017-08-15 00:00:00 23.3 5 Sur 32 Sudoeste 0.4 927.1 1 37
2017-08-14 23:00:00 24.9 9 Sudoeste 50 Sudoeste 0 928.4 2.8 39
2017-08-14 22:00:00 27.1 13 Sur 36 Sur 0 926.2 1.6 22
2017-08-14 21:00:00 27 3 Oeste 13 Oeste 0 926.1 1.6 26
2017-08-14 20:00:00 28.5 3 Sudeste 20 Sur 0 925.6 1.2 28
2017-08-14 19:00:00 30.6 2 Sur 43 Sur 0 924.6 0 19
2017-08-14 18:00:00 31.8 13 Sur 51 Sur 0 924.5 -0.6 18
2017-08-14 17:00:00 34.3 8 Sur 30 Sudoeste 0 924.4 -1.1 14
2017-08-14 16:00:00 34.5 6 Oeste 27 Sudoeste 0 924.6 -1.4 12
2017-08-14 15:00:00 34.5 6 Oeste 25 Sudoeste 0 925.1 -1.5 12
2017-08-14 14:00:00 33.6 8 Sudoeste 35 Oeste 0 925.5 -1.1 12
2017-08-14 13:00:00 31.8 4 Sudeste 14 Sudeste 0 926 -0.8 20
2017-08-14 12:00:00 28.8 7 Este 19 Este 0 926.6 -0.2 26
2017-08-14 11:00:00 26.3 11 Este 28 Este 0 926.6 0 32
2017-08-14 10:00:00 23.2 10 Este 26 Este 0 926.8 0.6 41
2017-08-14 09:00:00 19.5 7 Este 18 Sudeste 0 926.8 0.6 49
2017-08-14 08:00:00 15.1 7 Este 11 Este 0 926.6 0.4 57
2017-08-14 07:00:00 14 7 Sudeste 11 Sudeste 0 926.2 -0.1 61
2017-08-14 06:00:00 14.2 0 Calma 8 Este 0 926.2 -0.2 60
2017-08-14 05:00:00 16.4 3 Este 12 Nordeste 0 926.2 -0.4 55
2017-08-14 04:00:00 17.2 8 Sudeste 16 Sudeste 0 926.3 -0.4 50
2017-08-14 03:00:00 16.4 0 Calma 6 Este 0 926.4 -0.5 50
2017-08-14 02:00:00 19.2 3 Este 12 Sudeste 0 926.6 0.1 43
2017-08-14 01:00:00 20 4 Este 10 Este 0 926.7 0.8 40
2017-08-14 00:00:00 21.1 4 Este 14 Sudeste 0 926.9 1.5 33
2017-08-13 23:00:00 20.8 6 Este 10 Este 0 926.5 1.2 32
2017-08-13 22:00:00 23.5 0 Calma 6 Norte 0 925.9 0.5 25
2017-08-13 21:00:00 28.5 0 Calma 21 Noroeste 0 925.4 -0.5 19
2017-08-13 20:00:00 30.6 5 Noroeste 19 Noroeste 0 925.3 -0.9 13
2017-08-13 19:00:00 31.3 6 Noroeste 25 Noroeste 0 925.4 -1.3 12
2017-08-13 18:00:00 33.8 5 Oeste 21 Oeste 0 925.9 -1.4 10
2017-08-13 17:00:00 32.4 8 Noroeste 24 Norte 0 926.2 -1.6 12
2017-08-13 16:00:00 32 9 Noroeste 23 Sudoeste 0 926.7 -1.8 13
2017-08-13 15:00:00 31.8 4 Sudoeste 21 Oeste 0 927.3 -1.7 14
2017-08-13 14:00:00 30 4 Noroeste 19 Sudoeste 0 927.8 -1.4 14
2017-08-13 13:00:00 28.3 5 Este 12 Nordeste 0 928.5 -0.7 17
2017-08-13 12:00:00 27 3 Sudeste 17 Sudeste 0 929 0 19
2017-08-13 11:00:00 23.7 8 Este 25 Sudeste 0 929.2 0.3 31
2017-08-13 10:00:00 20.5 17 Este 29 Este 0 929.2 0.5 37
2017-08-13 09:00:00 18.2 9 Este 18 Este 0 929 0.1 47
2017-08-13 08:00:00 14.9 8 Este 15 Este 0 928.9 -0.3 59
2017-08-13 07:00:00 14 7 Este 12 Este 0 928.7 -0.9 62
2017-08-13 06:00:00 15.6 7 Este 19 Este 0 928.9 -1 56
2017-08-13 05:00:00 16.1 8 Este 19 Este 0 929.2 -1.1 54
2017-08-13 04:00:00 16.6 8 Este 15 Nordeste 0 929.6 -0.9 49
2017-08-13 03:00:00 17 7 Este 18 Este 0 929.9 -0.5 43
2017-08-13 02:00:00 14.4 3 Este 6 Sudeste 0 930.3 0.2 43
2017-08-13 01:00:00 16.8 3 Este 7 Sudeste 0 930.5 1 40
2017-08-13 00:00:00 19.1 4 Este 10 Sudeste 0 930.4 1 37
2017-08-12 23:00:00 21.8 2 Este 13 Norte 0 930.1 0.8 27
2017-08-12 22:00:00 23.9 4 Nordeste 13 Noroeste 0 929.5 0.2 21
2017-08-12 21:00:00 26.4 4 Noroeste 15 Noroeste 0 929.4 -0.1 14
2017-08-12 20:00:00 28.2 6 Noroeste 17 Noroeste 0 929.3 -0.7 10
2017-08-12 19:00:00 28.8 6 Norte 21 Noroeste 0 929.3 -1.4 10
2017-08-12 18:00:00 29.8 5 Este 14 Norte 0 929.5 -1.8 11
2017-08-12 17:00:00 30 6 Norte 20 Noroeste 0 930 -1.7 10
2017-08-12 16:00:00 29.3 6 Sudoeste 20 Noroeste 0 930.7 -1.6 12
2017-08-12 15:00:00 28.8 5 Sudoeste 17 Oeste 0 931.3 -1.4 14
2017-08-12 14:00:00 26.8 3 Sudoeste 14 Este 0 931.7 -1.2 14
2017-08-12 13:00:00 25.1 6 Este 16 Este 0 932.3 -0.9 18
2017-08-12 12:00:00 22.9 6 Nordeste 18 Este 0 932.7 -0.3 22
2017-08-12 11:00:00 20.2 4 Este 13 Este 0 932.9 0.4 32
2017-08-12 10:00:00 16.1 7 Este 16 Este 0 933.2 0.8 46
2017-08-12 09:00:00 13.2 3 Este 10 Este 0 933 0.9 51
2017-08-12 08:00:00 8.3 4 Este 10 Este 0 932.5 0 67
2017-08-12 07:00:00 6.2 3 Sudeste 7 Este 0 932.4 -0.1 73
2017-08-12 06:00:00 6.5 0 Calma 6 Sudoeste 0 932.1 -0.4 67
2017-08-12 05:00:00 7.4 3 Sur 6 Sudoeste 0 932.5 -0.4 63
2017-08-12 04:00:00 8.2 3 Sudoeste 7 Sudoeste 0 932.5 -0.4 60
2017-08-12 03:00:00 9.3 2 Oeste 6 Sudoeste 0 932.5 -0.4 58
2017-08-12 02:00:00 10.5 2 Sur 7 Sudoeste 0 932.9 0.4 56
2017-08-12 01:00:00 12 0 Calma 8 Sudoeste 0 932.9 0.9 52
2017-08-12 00:00:00 15 3 Sudeste 18 Este 0 932.9 1.3 45
2017-08-11 23:00:00 18 4 Nordeste 16 Norte 0 932.5 1.1 36
2017-08-11 22:00:00 20 3 Noroeste 20 Norte 0 932 0.8 29
2017-08-11 21:00:00 21.9 10 Norte 31 Norte 0 931.6 0 23
2017-08-11 20:00:00 23.5 12 Norte 32 Noroeste 0 931.4 -0.3 21
2017-08-11 19:00:00 24.2 17 Noroeste 37 Noroeste 0 931.2 -1 18
2017-08-11 18:00:00 25.4 10 Norte 28 Norte 0 931.6 -0.9 14
2017-08-11 17:00:00 25.5 12 Noroeste 30 Noroeste 0 931.7 -1.2 14
2017-08-11 16:00:00 24.7 9 Noroeste 24 Norte 0 932.2 -1.3 15
2017-08-11 15:00:00 23.3 10 Noroeste 22 Noroeste 0 932.5 -1.4 15
2017-08-11 14:00:00 22.3 8 Norte 19 Noroeste 0 932.9 -1.2 20
2017-08-11 13:00:00 21.3 5 Norte 18 Norte 0 933.5 -0.4 22
2017-08-11 12:00:00 19.1 6 Noroeste 12 Noroeste 0 933.9 -0.1 27
2017-08-11 11:00:00 16.6 4 Nordeste 9 Nordeste 0 934.1 -0.1 40
2017-08-11 10:00:00 13.9 3 Este 9 Sudeste 0 933.9 0.3 50
2017-08-11 09:00:00 11.7 3 Este 10 Este 0 934 0.1 59
2017-08-11 08:00:00 6.8 4 Norte 11 Sudoeste 0 934.2 0 81
2017-08-11 07:00:00 6.1 2 Sudoeste 8 Norte 0 933.6 -0.9 79
2017-08-11 06:00:00 5.9 2 Oeste 8 Sudoeste 0 933.9 -0.9 77
2017-08-11 05:00:00 6.7 0 Calma 7 Sudoeste 0 934.2 -0.8 75
2017-08-11 04:00:00 8.5 0 Calma 6 Norte 0 934.5 -0.4 68
2017-08-11 03:00:00 10.2 3 Norte 12 Norte 0 934.8 -0.4 64
2017-08-11 02:00:00 10.3 3 Sudoeste 10 Norte 0 935 0.1 63
2017-08-11 01:00:00 11.2 0 Calma 12 Norte 0 934.9 0.7 60
2017-08-11 00:00:00 12.4 4 Nordeste 13 Noroeste 0 935.2 1.4 60
2017-08-10 23:00:00 14.4 7 Norte 20 Norte 0 934.9 1.6 48
2017-08-10 22:00:00 16.2 7 Norte 21 Nordeste 0 934.2 1.1 43
2017-08-10 21:00:00 18.2 6 Norte 29 Norte 0 933.8 0.7 35
2017-08-10 20:00:00 19.6 14 Norte 35 Noroeste 0 933.3 0.1 32
2017-08-10 19:00:00 20.6 13 Norte 37 Norte 0 933.1 -0.6 30
2017-08-10 18:00:00 21.8 15 Norte 36 Noroeste 0 933.1 -0.8 29
2017-08-10 17:00:00 22.3 14 Noroeste 32 Noroeste 0 933.2 -1.1 26
2017-08-10 16:00:00 21.6 11 Norte 36 Noroeste 0 933.7 -0.8 29
2017-08-10 15:00:00 21.1 8 Nordeste 31 Noroeste 0 933.9 -0.9 31
2017-08-10 14:00:00 20.3 7 Nordeste 25 Este 0 934.3 -0.5 33
2017-08-10 13:00:00 18.8 8 Nordeste 28 Este 0 934.5 -0.4 35
2017-08-10 12:00:00 16.7 9 Norte 28 Norte 0 934.8 0.2 45
2017-08-10 11:00:00 14.9 10 Nordeste 29 Noroeste 0 934.8 0.6 55
2017-08-10 10:00:00 14.1 10 Nordeste 23 Norte 0 934.9 0.8 56
2017-08-10 09:00:00 13.2 3 Norte 8 Norte 0 934.6 1 58
2017-08-10 08:00:00 7.6 0 Calma 11 Noroeste 0 934.2 0.7 73
2017-08-10 07:00:00 5 2 Sudoeste 8 Sudoeste 0 934.1 0.2 79
2017-08-10 06:00:00 5.5 5 Sudoeste 8 Sudoeste 0 933.6 -0.4 77
2017-08-10 05:00:00 7.7 3 Sudoeste 17 Noroeste 0 933.5 -0.5 70
2017-08-10 04:00:00 8.2 5 Noroeste 13 Noroeste 0 933.9 -0.1 68
2017-08-10 03:00:00 9.5 5 Norte 18 Nordeste 0 934 0.3 64
2017-08-10 02:00:00 9.7 7 Norte 14 Noroeste 0 934 0.9 65
2017-08-10 01:00:00 10.6 6 Norte 21 Noroeste 0 934 2.1 59
2017-08-10 00:00:00 11 9 Norte 21 Nordeste 0 933.7 2.7 60
2017-08-09 23:00:00 12.7 9 Norte 25 Norte 0 933.1 3 53
2017-08-09 22:00:00 14.2 9 Norte 33 Norte 0 931.9 2.2 46
2017-08-09 21:00:00 16.1 12 Norte 32 Norte 0 931 1.5 37
2017-08-09 20:00:00 17.6 12 Nordeste 38 Noroeste 0 930.1 1 32
2017-08-09 19:00:00 18.7 15 Norte 41 Nordeste 0 929.7 0.5 30
2017-08-09 18:00:00 20 17 Norte 44 Norte 0 929.5 0.8 29
2017-08-09 17:00:00 20.5 16 Norte 41 Noroeste 0 929.1 0.7 29
2017-08-09 16:00:00 20.5 15 Norte 45 Norte 0 929.2 0.9 31
2017-08-09 15:00:00 20.5 12 Norte 38 Norte 0 928.7 0.6 34
2017-08-09 14:00:00 20.4 11 Noroeste 35 Noroeste 0 928.4 0.2 37
2017-08-09 13:00:00 20 10 Norte 28 Norte 0 928.3 0.4 39
2017-08-09 12:00:00 18.8 10 Norte 27 Norte 0 928.1 0.6 43
2017-08-09 11:00:00 18 8 Nordeste 22 Este 0 928.2 0.9 49
2017-08-09 10:00:00 15.4 5 Nordeste 18 Este 0 927.9 1 55
2017-08-09 09:00:00 13.7 9 Este 17 Este 0 927.5 0.5 62
2017-08-09 08:00:00 10.9 0 Calma 10 Este 0 927.3 0.2 70
2017-08-09 07:00:00 10.7 8 Este 16 Este 0 926.9 0 73
2017-08-09 06:00:00 10.7 5 Nordeste 13 Este 0 927 -0.2 76
2017-08-09 05:00:00 11.4 5 Norte 12 Este 0 927.1 -0.4 71
2017-08-09 04:00:00 12.2 5 Este 17 Este 0 926.9 -0.3 69
2017-08-09 03:00:00 9.7 0 Calma 5 Nordeste 0 927.2 -0.1 61
2017-08-09 02:00:00 11.9 0 Calma 17 Sudeste 0 927.5 0.3 56
2017-08-09 01:00:00 11.9 0 Calma 9 Este 0 927.2 0.4 53
2017-08-09 00:00:00 13.6 0 Calma 8 Sudoeste 0 927.3 0.6 49
2017-08-08 23:00:00 15 2 Oeste 10 Noroeste 0 927.2 0.6 51
2017-08-08 22:00:00 19.1 0 Calma 10 Oeste 0 926.8 0 32
2017-08-08 21:00:00 22.6 6 Sudoeste 22 Sudoeste 0 926.7 -0.4 23
2017-08-08 20:00:00 23.4 3 Sudoeste 16 Sudoeste 0 926.6 -0.7 22
2017-08-08 19:00:00 23.3 5 Norte 25 Noroeste 0 926.8 -0.8 23
2017-08-08 18:00:00 25.8 5 Oeste 24 Noroeste 0 927.1 -0.7 20
2017-08-08 17:00:00 23.9 9 Norte 25 Noroeste 0 927.3 -0.7 24
2017-08-08 16:00:00 23.5 5 Noroeste 28 Noroeste 0 927.6 -0.4 24
2017-08-08 15:00:00 22.6 10 Noroeste 35 Noroeste 0 927.8 -0.1 27
2017-08-08 14:00:00 21.7 9 Noroeste 28 Noroeste 0 928 0.3 32
2017-08-08 13:00:00 21.3 8 Noroeste 30 Noroeste 0 928 0.5 34
2017-08-08 12:00:00 20.3 13 Noroeste 29 Noroeste 0 927.9 0.5 38
2017-08-08 11:00:00 19.2 9 Noroeste 23 Norte 0 927.7 0.8 45
2017-08-08 10:00:00 17.4 5 Noroeste 23 Norte 0 927.5 1.4 58
2017-08-08 09:00:00 15.3 6 Norte 22 Norte 0 927.4 1.7 64
2017-08-08 08:00:00 12.2 3 Oeste 16 Noroeste 0 926.9 1.1 77
2017-08-08 07:00:00 11.3 3 Oeste 11 Oeste 0 926.1 0.5 81
2017-08-08 06:00:00 12 3 Oeste 12 Sudoeste 0 925.7 0.2 79
2017-08-08 05:00:00 12.7 4 Oeste 15 Oeste 0 925.8 0.4 78
2017-08-08 04:00:00 13.4 4 Oeste 10 Oeste 0 925.6 0.9 75
2017-08-08 03:00:00 14.2 4 Sudoeste 16 Noroeste 0 925.5 1.7 73
2017-08-08 02:00:00 15.3 5 Oeste 17 Noroeste 0 925.4 2.4 71
2017-08-08 01:00:00 16.9 5 Oeste 16 Oeste 0 924.7 2.1 69
2017-08-08 00:00:00 18.6 4 Oeste 21 Noroeste 0 923.8 1.5 63
2017-08-07 23:00:00 19.8 4 Sudoeste 7 Sudoeste 0 923 1.2 33
2017-08-07 22:00:00 24.1 0 Calma 12 Oeste 0 922.6 0.4 24
2017-08-07 21:00:00 26.5 3 Oeste 16 Oeste 0 922.3 -0.5 16
2017-08-07 20:00:00 28.1 8 Noroeste 21 Noroeste 0 921.8 -1.1 20
2017-08-07 19:00:00 30 6 Oeste 21 Noroeste 0 922.2 -0.9 17
2017-08-07 18:00:00 31 7 Oeste 35 Sudoeste 0 922.8 -0.5 14
2017-08-07 17:00:00 31.4 9 Oeste 36 Oeste 0 922.9 -0.8 13
2017-08-07 16:00:00 33 11 Oeste 52 Sudoeste 0 923.1 -1.1 12
2017-08-07 15:00:00 31.6 12 Oeste 33 Sudoeste 0 923.3 -1.1 17
2017-08-07 14:00:00 31.2 14 Sudoeste 40 Oeste 0 923.7 -0.9 19
2017-08-07 13:00:00 31 14 Sudoeste 37 Sudoeste 0 924.2 -0.8 19
2017-08-07 12:00:00 28.6 4 Sudeste 10 Sudeste 0 924.4 -0.9 32
2017-08-07 11:00:00 25.7 5 Este 16 Este 0 924.6 -0.9 40
2017-08-07 10:00:00 22.5 6 Este 14 Este 0 925 -0.4 49
2017-08-07 09:00:00 19.2 0 Calma 5 Oeste 0 925.3 -0.1 60
2017-08-07 08:00:00 13.8 0 Calma 4 Sudoeste 0 925.5 -0.3 74
2017-08-07 07:00:00 12.5 0 Calma 4 Sudoeste 0 925.4 -0.4 76
2017-08-07 06:00:00 13.7 2 Sudoeste 5 Sudoeste 0 925.4 -1 76
2017-08-07 05:00:00 15 0 Calma 5 Oeste 0 925.8 -0.7 72
2017-08-07 04:00:00 17.5 0 Calma 5 Sudoeste 0 925.8 -1.4 60
2017-08-07 03:00:00 20 3 Este 18 Este 0 926.4 -0.9 52
2017-08-07 02:00:00 21 10 Este 19 Este 0 926.5 -0.2 49
2017-08-07 01:00:00 21.8 5 Nordeste 28 Sudeste 0 927.2 1.2 46
2017-08-07 00:00:00 19.8 3 Sudoeste 9 Sudoeste 0 927.3 1.7 51
2017-08-06 23:00:00 21.7 3 Sudoeste 7 Oeste 0 926.7 1.4 47
2017-08-06 22:00:00 23.9 4 Noroeste 15 Noroeste 0 926 0.5 39
2017-08-06 21:00:00 25.8 8 Norte 26 Noroeste 0 925.6 0.2 34
2017-08-06 20:00:00 27.6 13 Noroeste 33 Noroeste 0 925.3 -0.6 30
2017-08-06 19:00:00 29.5 14 Norte 32 Noroeste 0 925.5 -1.1 27
2017-08-06 18:00:00 31.7 6 Este 17 Este 0 925.4 -1.7 26
2017-08-06 17:00:00 31.4 4 Este 24 Sudeste 0 925.9 -1.8 26
2017-08-06 16:00:00 30 5 Norte 22 Sudeste 0 926.6 -2 30
2017-08-06 15:00:00 28.7 10 Sudeste 25 Sudeste 0 927.1 -2 31
2017-08-06 14:00:00 27.7 10 Sudeste 30 Sudeste 0 927.7 -1.6 33
2017-08-06 13:00:00 25.8 8 Este 23 Este 0 928.6 -0.9 38
2017-08-06 12:00:00 24.2 7 Este 20 Sudeste 0 929.1 -0.2 41
2017-08-06 11:00:00 22.3 7 Nordeste 22 Sudeste 0 929.3 0.4 46
2017-08-06 10:00:00 20.5 8 Este 16 Este 0 929.5 0.9 51
2017-08-06 09:00:00 18.8 2 Norte 6 Norte 0 929.3 0.8 56
2017-08-06 08:00:00 14.5 2 Sudoeste 4 Sudoeste 0 928.9 0.4 72
2017-08-06 07:00:00 12.7 2 Sudoeste 6 Sudoeste 0 928.6 0.1 77
2017-08-06 06:00:00 13.6 0 Calma 7 Oeste 0 928.5 0 74
2017-08-06 05:00:00 14.4 2 Sudoeste 5 Oeste 0 928.5 0.1 73
2017-08-06 04:00:00 15.1 2 Oeste 7 Noroeste 0 928.5 0.3 70
2017-08-06 03:00:00 15.8 2 Oeste 8 Noroeste 0 928.5 0.7 67
2017-08-06 02:00:00 16.2 3 Noroeste 13 Noroeste 0 928.4 0.9 66
2017-08-06 01:00:00 17.1 3 Oeste 11 Noroeste 0 928.2 1.1 64
2017-08-06 00:00:00 18.3 5 Noroeste 14 Noroeste 0 927.8 1.4 60
2017-08-05 23:00:00 20.3 2 Oeste 15 Noroeste 0 927.5 1.5 53
2017-08-05 22:00:00 22.1 8 Noroeste 23 Noroeste 0 927.1 1.5 46
2017-08-05 21:00:00 24.7 10 Norte 33 Noroeste 0 926.4 1 36
2017-08-05 20:00:00 26.5 14 Norte 37 Norte 0 926 0.6 33
2017-08-05 19:00:00 29 18 Norte 37 Norte 0 925.6 -0.5 29
2017-08-05 18:00:00 31.4 16 Noroeste 36 Noroeste 0 925.4 -1.3 25
2017-08-05 17:00:00 32.6 14 Noroeste 34 Noroeste 0 925.4 -1.7 23
2017-08-05 16:00:00 34.2 5 Oeste 23 Noroeste 0 926.1 -1.6 20
2017-08-05 15:00:00 33 5 Oeste 22 Oeste 0 926.7 -1.4 21
2017-08-05 14:00:00 31.8 7 Oeste 23 Noroeste 0 927.1 -1.3 22
2017-08-05 13:00:00 30.3 8 Norte 16 Noroeste 0 927.7 -0.9 32
2017-08-05 12:00:00 28.7 5 Norte 17 Noroeste 0 928.1 -0.4 38
2017-08-05 11:00:00 26.3 6 Noroeste 15 Norte 0 928.4 0.3 45
2017-08-05 10:00:00 24.4 3 Noroeste 9 Oeste 0 928.6 0.7 46
2017-08-05 09:00:00 20.9 0 Calma 4 Nordeste 0 928.5 0.8 55
2017-08-05 08:00:00 15.9 2 Este 4 Este 0 928.1 0.5 71
2017-08-05 07:00:00 14.1 0 Calma 4 Este 0 927.9 0.1 75
2017-08-05 06:00:00 15 0 Calma -- -- 0 927.7 -0.2 74
2017-08-05 05:00:00 16 0 Calma 3 Este 0 927.6 -0.1 72
2017-08-05 04:00:00 16.9 0 Calma 5 Sudoeste 0 927.8 0.2 69
2017-08-05 03:00:00 17.7 0 Calma 4 Oeste 0 927.9 0.4 65
2017-08-05 02:00:00 18.7 3 Este 6 Este 0 927.7 0.3 62
2017-08-05 01:00:00 19.5 0 Calma 3 Este 0 927.6 0.7 63
2017-08-05 00:00:00 20.7 2 Sudeste 5 Este 0 927.5 0.9 53
2017-08-04 23:00:00 23.2 0 Calma 4 Este 0 927.4 0.9 54
2017-08-04 22:00:00 27.4 2 Sudoeste 4 Sudoeste 0 926.9 0.3 40
2017-08-04 21:00:00 31.5 0 Calma 14 Oeste 0 926.6 -0.4 27
2017-08-04 20:00:00 33.4 5 Noroeste 17 Oeste 0 926.5 -1.1 21
2017-08-04 19:00:00 34.4 5 Oeste 22 Noroeste 0 926.6 -1.6 19
2017-08-04 18:00:00 35.7 5 Oeste 20 Norte 0 927 -1.9 19
2017-08-04 17:00:00 35.3 5 Oeste 23 Oeste 0 927.6 -1.9 22
2017-08-04 16:00:00 33.1 5 Oeste 23 Sudoeste 0 928.2 -1.6 27
2017-08-04 15:00:00 32.1 6 Oeste 21 Oeste 0 928.9 -1.3 28
2017-08-04 14:00:00 30.7 6 Oeste 18 Oeste 0 929.5 -0.7 31
2017-08-04 13:00:00 30 5 Oeste 21 Noroeste 0 929.8 -0.4 33
2017-08-04 12:00:00 29 5 Oeste 19 Sudoeste 0 930.2 0.2 35
2017-08-04 11:00:00 27.5 5 Sudoeste 15 Sudoeste 0 930.2 0.5 39
2017-08-04 10:00:00 25.7 5 Oeste 15 Oeste 0 930.2 0.7 44
2017-08-04 09:00:00 23.9 3 Oeste 14 Sudoeste 0 930 0.8 48
2017-08-04 08:00:00 19 5 Sudoeste 12 Sudoeste 0 929.7 0.6 62
2017-08-04 07:00:00 16.9 0 Calma 11 Oeste 0 929.5 0.4 74
2017-08-04 06:00:00 16.9 3 Sudoeste 8 Oeste 0 929.2 0.2 72
2017-08-04 05:00:00 17.8 0 Calma 4 Sudoeste 0 929.1 0.1 64
2017-08-04 04:00:00 19.7 3 Sudoeste 9 Sudoeste 0 929.1 0.4 57
2017-08-04 03:00:00 21.5 4 Sudoeste 13 Oeste 0 929 0.4 49
2017-08-04 02:00:00 21.9 5 Oeste 13 Oeste 0 929 0.4 49
2017-08-04 01:00:00 19.6 3 Oeste 8 Oeste 0 928.7 0.8 61
2017-08-04 00:00:00 21 2 Sudoeste 6 Sudoeste 0 928.6 1.1 57
2017-08-03 23:00:00 23.4 2 Sudoeste 5 Sudoeste 0 928.6 1.3 47
2017-08-03 22:00:00 27.5 2 Sudoeste 9 Oeste 0 927.9 0.4 29
2017-08-03 21:00:00 30.8 3 Oeste 22 Oeste 0 927.5 -0.3 19
2017-08-03 20:00:00 32.7 6 Oeste 26 Sudoeste 0 927.3 -0.8 15
2017-08-03 19:00:00 34.1 6 Oeste 23 Oeste 0 927.5 -1 13
2017-08-03 18:00:00 35.1 7 Sudoeste 32 Sudoeste 0 927.8 -1.1 12
2017-08-03 17:00:00 35 11 Sudoeste 31 Sudoeste 0 928.1 -1.8 11
2017-08-03 16:00:00 33.8 10 Sudoeste 30 Sudoeste 0 928.5 -1.8 13
2017-08-03 15:00:00 31.8 4 Oeste 22 Oeste 0 928.9 -1.8 16
2017-08-03 14:00:00 30.2 5 Sudoeste 20 Sudoeste 0 929.9 -1 19
2017-08-03 13:00:00 29.5 4 Oeste 15 Oeste 0 930.3 -0.6 20
2017-08-03 12:00:00 27.9 3 Oeste 15 Oeste 0 930.7 0 26
2017-08-03 11:00:00 26.1 4 Oeste 16 Oeste 0 930.9 0.3 25
2017-08-03 10:00:00 22.9 3 Norte 5 Nordeste 0 930.9 0.4 32
2017-08-03 09:00:00 18.6 2 Norte 10 Este 0 930.7 0.8 44
2017-08-03 08:00:00 13.4 4 Este 8 Este 0 930.6 1.1 59
2017-08-03 07:00:00 10.9 0 Calma 5 Este 0 930.5 0.9 64
2017-08-03 06:00:00 11.5 2 Este 7 Nordeste 0 929.9 0.4 68
2017-08-03 05:00:00 11.9 2 Este 5 Este 0 929.5 0.1 70
2017-08-03 04:00:00 13.1 2 Este 4 Este 0 929.6 0.3 57
2017-08-03 03:00:00 14.1 0 Calma 4 Sudoeste 0 929.5 0.3 51
2017-08-03 02:00:00 15.2 0 Calma 9 Oeste 0 929.4 0.5 54
2017-08-03 01:00:00 16.1 2 Este 4 Este 0 929.3 1.3 61
2017-08-03 00:00:00 17.5 0 Calma 5 Sudoeste 0 929.2 1.9 48
2017-08-02 23:00:00 21 3 Sudoeste 6 Sudoeste 0 928.9 2 33
2017-08-02 22:00:00 26 2 Sudoeste 9 Oeste 0 928 1.1 24
2017-08-02 21:00:00 29.4 3 Noroeste 19 Noroeste 0 927.3 0.2 17
2017-08-02 20:00:00 31.1 7 Noroeste 22 Noroeste 0 926.9 -0.4 14
2017-08-02 19:00:00 32.6 6 Oeste 25 Noroeste 0 926.9 -1 14
2017-08-02 18:00:00 33.7 10 Sudoeste 27 Sudoeste 0 927.1 -1.2 13
2017-08-02 17:00:00 33.1 6 Oeste 26 Sudoeste 0 927.3 -1.5 14
2017-08-02 16:00:00 32.2 9 Oeste 28 Oeste 0 927.9 -1.6 15
2017-08-02 15:00:00 30.6 6 Noroeste 25 Oeste 0 928.3 -1.5 18
2017-08-02 14:00:00 29.6 6 Noroeste 16 Norte 0 928.8 -1.1 21
2017-08-02 13:00:00 28 5 Este 12 Este 0 929.5 -0.5 25
2017-08-02 12:00:00 25.8 4 Este 10 Este 0 929.8 0.2 31
2017-08-02 11:00:00 23.9 3 Nordeste 8 Nordeste 0 929.9 0.6 36
2017-08-02 10:00:00 21 2 Nordeste 15 Sudeste 0 930 0.8 41
2017-08-02 09:00:00 17.4 5 Este 12 Sudeste 0 929.6 0.6 53
2017-08-02 08:00:00 12.9 2 Este 5 Este 0 929.3 0.2 74
2017-08-02 07:00:00 10.9 0 Calma 3 Este 0 929.2 0.4 77
2017-08-02 06:00:00 11.4 0 Calma 4 Norte 0 929 0.3 76
2017-08-02 05:00:00 12.4 2 Este 5 Este 0 929.1 0.3 71
2017-08-02 04:00:00 13.1 0 Calma 4 Sudoeste 0 928.8 0.4 69
2017-08-02 03:00:00 13.8 0 Calma 4 Sudoeste 0 928.7 0.5 58
2017-08-02 02:00:00 14.8 0 Calma 4 Sudoeste 0 928.8 1.1 51
2017-08-02 01:00:00 16 0 Calma 4 Norte 0 928.4 1.6 59
2017-08-02 00:00:00 17.4 0 Calma 7 Sudoeste 0 928.2 2.3 56
2017-08-01 23:00:00 20.2 0 Calma 4 Sudoeste 0 927.7 2.5 42
2017-08-01 22:00:00 24.2 2 Sudoeste 11 Norte 0 926.8 1.9 30
2017-08-01 21:00:00 27.2 3 Oeste 14 Oeste 0 925.9 1.1 22
2017-08-01 20:00:00 29.6 4 Oeste 25 Oeste 0 925.2 0.4 18
2017-08-01 19:00:00 31.1 6 Noroeste 22 Oeste 0 924.9 0 15
2017-08-01 18:00:00 32.4 9 Sudoeste 29 Oeste 0 924.8 -0.2 14
2017-08-01 17:00:00 32.3 8 Oeste 37 Sudoeste 0 924.8 -0.5 12
2017-08-01 16:00:00 30.9 8 Oeste 24 Sudoeste 0 924.9 -0.6 14
2017-08-01 15:00:00 28.8 6 Oeste 22 Oeste 0 925 -0.8 19
2017-08-01 14:00:00 27.3 5 Oeste 21 Oeste 0 925.3 -0.1 22
2017-08-01 13:00:00 26.3 5 Noroeste 21 Noroeste 0 925.5 0.2 29
2017-08-01 12:00:00 25 6 Oeste 17 Oeste 0 925.8 0.8 32
2017-08-01 11:00:00 23.8 4 Sudoeste 13 Sudoeste 0 925.4 1.1 39
2017-08-01 10:00:00 21.6 4 Oeste 14 Sudoeste 0 925.3 1.5 51
2017-08-01 09:00:00 19.5 2 Oeste 5 Oeste 0 925 1.5 65
2017-08-01 08:00:00 13.2 0 Calma 5 Sudoeste 0 924.3 1 82
2017-08-01 07:00:00 12.9 0 Calma 6 Sudoeste 0 923.8 0.4 82
2017-08-01 06:00:00 14.2 0 Calma 6 Este 0 923.5 -0.2 80
2017-08-01 05:00:00 15.3 2 Oeste 8 Sudoeste 0 923.3 -0.2 81
2017-08-01 04:00:00 16.6 3 Sudoeste 7 Sudoeste 0 923.4 -0.1 73
2017-08-01 03:00:00 17 2 Sudoeste 6 Oeste 0 923.7 0.4 70
2017-08-01 02:00:00 18 0 Calma 8 Noroeste 0 923.5 0.6 67
2017-08-01 01:00:00 19.1 3 Sudoeste 10 Noroeste 0 923.5 1.4 64
2017-08-01 00:00:00 20 4 Oeste 17 Oeste 0 923.3 2 60
2017-07-31 23:00:00 21 5 Oeste 22 Oeste 0 922.9 2.1 53
2017-07-31 22:00:00 23.9 6 Oeste 19 Noroeste 0 922.1 1.7 31
2017-07-31 21:00:00 25.8 0 Calma 13 Oeste 0 921.3 0.9 17
2017-07-31 20:00:00 27.2 2 Oeste 22 Noroeste 0 920.8 0.2 17
2017-07-31 19:00:00 28.5 8 Noroeste 27 Oeste 0 920.4 -0.4 14
2017-07-31 18:00:00 30.9 8 Oeste 32 Oeste 0 920.4 -0.9 14
2017-07-31 17:00:00 30.5 8 Oeste 32 Oeste 0 920.6 -1.2 15
2017-07-31 16:00:00 31.9 13 Oeste 37 Sudoeste 0 920.8 -1.4 14
2017-07-31 15:00:00 30.1 9 Sudoeste 33 Oeste 0 921.3 -1 16
2017-07-31 14:00:00 28.6 8 Oeste 29 Oeste 0 921.8 -0.3 25
2017-07-31 13:00:00 27.2 6 Oeste 24 Oeste 0 922.2 0.3 27
2017-07-31 12:00:00 24.1 6 Noroeste 19 Oeste 0 922.3 0.2 34
2017-07-31 11:00:00 23.6 3 Oeste 14 Oeste 0 922.1 0 39
2017-07-31 10:00:00 19.6 6 Sudeste 13 Este 0 921.9 -0.1 53
2017-07-31 09:00:00 16.5 2 Nordeste 6 Este 0 922.1 0.2 66
2017-07-31 08:00:00 12.5 0 Calma 5 Noroeste 0 922.1 0 82
2017-07-31 07:00:00 11.4 0 Calma 4 Sudeste 0 922 -0.1 85
2017-07-31 06:00:00 12 0 Calma 4 Oeste 0 921.9 -0.7 82
2017-07-31 05:00:00 13 3 Sudoeste 8 Oeste 0 922.1 -0.9 82
2017-07-31 04:00:00 13.7 4 Oeste 10 Oeste 0 922.1 -1.1 76
2017-07-31 03:00:00 14.6 3 Sudoeste 6 Sudoeste 0 922.6 -0.5 65
2017-07-31 02:00:00 15.8 2 Sudoeste 9 Oeste 0 923 -0.1 60
2017-07-31 01:00:00 17.1 0 Calma 5 Sudoeste 0 923.2 0.7 39
2017-07-31 00:00:00 19.5 3 Sudoeste 6 Sudoeste 0 923.1 1 31
2017-07-30 23:00:00 22.7 2 Sudoeste 5 Sudoeste 0 923.1 0.9 24
2017-07-30 22:00:00 26.9 2 Noroeste 15 Noroeste 0 922.5 0 17
2017-07-30 21:00:00 29.9 4 Oeste 28 Noroeste 0 922.1 -0.8 14
2017-07-30 20:00:00 31.1 7 Noroeste 28 Oeste 0 922.2 -1.2 14
2017-07-30 19:00:00 32.8 9 Oeste 42 Oeste 0 922.5 -1.3 13
2017-07-30 18:00:00 34 12 Oeste 46 Oeste 0 922.9 -1.3 12
2017-07-30 17:00:00 34.3 15 Sudoeste 41 Oeste 0 923.4 -1.4 12
2017-07-30 16:00:00 33.7 7 Sudoeste 42 Oeste 0 923.8 -1.4 12
2017-07-30 15:00:00 32.1 8 Oeste 30 Oeste 0 924.2 -1.5 15
2017-07-30 14:00:00 30.5 9 Oeste 29 Sudoeste 0 924.8 -1.3 19
2017-07-30 13:00:00 29.5 7 Sudoeste 21 Sudoeste 0 925.2 -1.3 21
2017-07-30 12:00:00 27.5 6 Sudoeste 18 Oeste 0 925.7 -0.7 26
2017-07-30 11:00:00 26.1 3 Oeste 12 Noroeste 0 926.1 -0.4 31
2017-07-30 10:00:00 22.9 5 Noroeste 11 Noroeste 0 926.5 0.2 40
2017-07-30 09:00:00 19.3 0 Calma 7 Este 0 926.4 0.2 52
2017-07-30 08:00:00 14.8 0 Calma 7 Sudeste 0 926.5 0.1 68
2017-07-30 07:00:00 14 0 Calma 7 Noroeste 0 926.3 -0.2 69
2017-07-30 06:00:00 14.4 0 Calma 3 Este 0 926.2 -0.4 65
2017-07-30 05:00:00 15 2 Sudeste 5 Sudeste 0 926.4 -0.2 60
2017-07-30 04:00:00 16 0 Calma 4 Sudeste 0 926.5 -0.1 62
2017-07-30 03:00:00 16.7 0 Calma 8 Sudoeste 0 926.6 -0.1 60
2017-07-30 02:00:00 17.8 0 Calma 5 Sudoeste 0 926.6 0 55
2017-07-30 01:00:00 19 0 Calma 3 Sudeste 0 926.6 0.6 39
2017-07-30 00:00:00 20.4 0 Calma 3 Sudoeste 0 926.7 1.1 42
2017-07-29 23:00:00 22.5 2 Sudoeste 5 Sudoeste 0 926.6 1 33
2017-07-29 22:00:00 26 0 Calma 8 Oeste 0 926 0.3 30
2017-07-29 21:00:00 30.6 3 Oeste 28 Sudoeste 0 925.6 -0.5 16
2017-07-29 20:00:00 32.5 8 Sudoeste 31 Sudoeste 0 925.6 -0.8 13
2017-07-29 19:00:00 34.1 8 Oeste 31 Oeste 0 925.7 -1.2 12
2017-07-29 18:00:00 34.9 9 Oeste 33 Sudoeste 0 926.1 -1.3 12
2017-07-29 17:00:00 34.5 9 Sudoeste 35 Sudoeste 0 926.4 -1.4 14
2017-07-29 16:00:00 33.1 9 Oeste 40 Sudoeste 0 926.9 -1.2 16
2017-07-29 15:00:00 31.5 15 Sudoeste 35 Oeste 0 927.4 -1.1 15
2017-07-29 14:00:00 30.2 11 Oeste 34 Sudoeste 0 927.8 -0.9 24
2017-07-29 13:00:00 29.5 9 Oeste 32 Oeste 0 928.1 -0.5 29
2017-07-29 12:00:00 27.7 10 Sudoeste 28 Sudoeste 0 928.5 0.4 32
2017-07-29 11:00:00 26.5 6 Oeste 22 Oeste 0 928.7 0.8 32
2017-07-29 10:00:00 25 5 Sudoeste 14 Sudoeste 0 928.6 1.1 33
2017-07-29 09:00:00 20.8 2 Sudoeste 10 Oeste 0 928.1 0.8 48
2017-07-29 08:00:00 15.1 2 Nordeste 5 Este 0 927.9 0.7 61
2017-07-29 07:00:00 12.3 0 Calma 8 Este 0 927.5 0.3 67
2017-07-29 06:00:00 12.8 2 Este 4 Este 0 927.3 0.1 67
2017-07-29 05:00:00 13.5 0 Calma 5 Sudoeste 0 927.2 -0.2 64
2017-07-29 04:00:00 14.1 5 Sudoeste 8 Sudoeste 0 927.2 -0.3 55
2017-07-29 03:00:00 14.9 0 Calma 6 Sudoeste 0 927.2 -0.2 54
2017-07-29 02:00:00 16.3 0 Calma 6 Este 0 927.4 0 58
2017-07-29 01:00:00 17.2 0 Calma 4 Sudoeste 0 927.5 0.6 48
2017-07-29 00:00:00 18.5 2 Este 4 Sudoeste 0 927.4 0.8 51
2017-07-28 23:00:00 21.7 0 Calma 5 Sudoeste 0 927.4 1.2 43
2017-07-28 22:00:00 26.5 0 Calma 9 Oeste 0 926.9 0.8 29
2017-07-28 21:00:00 29.9 3 Oeste 21 Noroeste 0 926.6 0.3 21
2017-07-28 20:00:00 31.7 6 Oeste 22 Noroeste 0 926.2 -0.4 22
2017-07-28 19:00:00 33.7 7 Oeste 25 Noroeste 0 926.1 -1 19
2017-07-28 18:00:00 35.1 9 Sudoeste 31 Sudoeste 0 926.3 -1.3 13
2017-07-28 17:00:00 34.9 8 Sudoeste 28 Sudoeste 0 926.6 -1.6 12
2017-07-28 16:00:00 33.4 7 Sudoeste 29 Oeste 0 927.1 -1.4 15
2017-07-28 15:00:00 31.7 10 Sudoeste 26 Sudoeste 0 927.6 -1 20
2017-07-28 14:00:00 29.7 6 Noroeste 25 Sudoeste 0 928.2 -0.6 29
2017-07-28 13:00:00 29.1 6 Oeste 24 Sudoeste 0 928.5 -0.6 28
2017-07-28 12:00:00 27.2 6 Oeste 21 Oeste 0 928.6 -0.2 37
2017-07-28 11:00:00 25.2 4 Oeste 12 Oeste 0 928.8 0.2 45
2017-07-28 10:00:00 22.8 2 Sudoeste 7 Nordeste 0 929.1 1 51
2017-07-28 09:00:00 19.2 2 Nordeste 4 Norte 0 928.8 1.1 66
2017-07-28 08:00:00 14.6 0 Calma 5 Noroeste 0 928.6 1.2 74
2017-07-28 07:00:00 12.8 2 Noroeste 5 Este 0 928.1 0.7 83
2017-07-28 06:00:00 13.3 0 Calma 5 Sudoeste 0 927.7 0.7 82
2017-07-28 05:00:00 14.3 0 Calma 8 Oeste 0 927.4 0.7 80
2017-07-28 04:00:00 15.3 3 Oeste 8 Oeste 0 927.4 1.3 78
2017-07-28 03:00:00 15.4 2 Oeste 8 Oeste 0 927 1.3 66
2017-07-28 02:00:00 15.5 2 Sudoeste 6 Oeste 0 926.7 1.2 59
2017-07-28 01:00:00 16.3 0 Calma 3 Sudoeste 0 926.1 1 51
2017-07-28 00:00:00 17.6 0 Calma 2 Sudeste 0 925.7 1 55
2017-07-27 23:00:00 21 2 Sudoeste 6 Sudoeste 0 925.5 1.1 35
2017-07-27 22:00:00 26.2 2 Sudoeste 10 Sudoeste 0 925.1 0.4 26
2017-07-27 21:00:00 30.9 4 Oeste 18 Oeste 0 924.7 -0.1 13
2017-07-27 20:00:00 32.7 5 Oeste 24 Oeste 0 924.4 -0.9 10
2017-07-27 19:00:00 34.1 7 Oeste 35 Oeste 0 924.7 -0.8 9
2017-07-27 18:00:00 35.3 8 Oeste 30 Oeste 0 924.8 -1.2 9
2017-07-27 17:00:00 34.6 8 Oeste 35 Oeste 0 925.3 -1.2 10
2017-07-27 16:00:00 33.3 6 Oeste 30 Oeste 0 925.5 -1.4 14
2017-07-27 15:00:00 32.6 8 Sudoeste 33 Sudoeste 0 926 -1.1 14
2017-07-27 14:00:00 31.4 7 Oeste 26 Oeste 0 926.5 -0.8 18
2017-07-27 13:00:00 30.5 8 Oeste 22 Sudoeste 0 926.9 -0.7 20
2017-07-27 12:00:00 29 5 Oeste 20 Sudoeste 0 927.1 -0.4 23
2017-07-27 11:00:00 26.7 4 Oeste 11 Oeste 0 927.3 0.2 28
2017-07-27 10:00:00 22.9 2 Nordeste 8 Sudeste 0 927.6 0.9 41
2017-07-27 09:00:00 19.7 3 Sudeste 9 Sudeste 0 927.5 1.1 53
2017-07-27 08:00:00 15.1 0 Calma 8 Este 0 927.1 0.5 72
2017-07-27 07:00:00 12.4 3 Este 8 Sudeste 0 926.7 0 75
2017-07-27 06:00:00 12.4 4 Este 8 Este 0 926.4 -0.3 78
2017-07-27 05:00:00 12.6 2 Este 8 Sudoeste 0 926.6 -0.1 72
2017-07-27 04:00:00 14.1 0 Calma 4 Este 0 926.7 -0.2 61
2017-07-27 03:00:00 16 2 Este 8 Este 0 926.7 -0.1 58
2017-07-27 02:00:00 16.7 5 Este 9 Sudeste 0 926.7 -0.1 53
2017-07-27 01:00:00 15.9 2 Este 4 Este 0 926.9 0.5 55
2017-07-27 00:00:00 17 0 Calma 4 Sudeste 0 926.8 0.7 58
2017-07-26 23:00:00 20.2 0 Calma 3 Este 0 926.8 0.9 43
2017-07-26 22:00:00 24.4 0 Calma 10 Noroeste 0 926.4 0.4 31
2017-07-26 21:00:00 28.3 4 Noroeste 14 Oeste 0 926.1 -0.2 20
2017-07-26 20:00:00 29.8 5 Oeste 21 Oeste 0 925.9 -0.6 18
2017-07-26 19:00:00 31 6 Oeste 22 Oeste 0 926 -1.1 17
2017-07-26 18:00:00 30.7 6 Noroeste 22 Norte 0 926.3 -1.2 18
2017-07-26 17:00:00 30.4 5 Oeste 22 Noroeste 0 926.5 -1.4 21
2017-07-26 16:00:00 29.1 9 Sudoeste 24 Sudoeste 0 927.1 -1.1 25
2017-07-26 15:00:00 28.1 6 Oeste 20 Oeste 0 927.5 -0.9 29
2017-07-26 14:00:00 27.2 5 Oeste 19 Sudoeste 0 927.9 -0.8 30
2017-07-26 13:00:00 25.7 7 Noroeste 21 Noroeste 0 928.2 -0.7 33
2017-07-26 12:00:00 25 4 Oeste 17 Noroeste 0 928.4 -0.4 33
2017-07-26 11:00:00 22.6 6 Noroeste 17 Noroeste 0 928.7 0.5 36
2017-07-26 10:00:00 20 5 Noroeste 14 Oeste 0 928.9 0.6 42
2017-07-26 09:00:00 17.1 5 Oeste 13 Oeste 0 928.8 0.7 47
2017-07-26 08:00:00 12.7 0 Calma 6 Sudoeste 0 928.2 0.1 69
2017-07-26 07:00:00 9.4 0 Calma 4 Noroeste 0 928.3 -0.2 79
2017-07-26 06:00:00 9.9 2 Noroeste 5 Norte 0 928.1 -0.5 78
2017-07-26 05:00:00 10.4 0 Calma 6 Oeste 0 928.1 -0.5 72
2017-07-26 04:00:00 11.6 2 Oeste 9 Sudoeste 0 928.5 -0.2 67
2017-07-26 03:00:00 11.9 2 Oeste 7 Sudoeste 0 928.6 -0.2 66
2017-07-26 02:00:00 13 3 Sudoeste 7 Sudoeste 0 928.6 -0.5 60
2017-07-26 01:00:00 14.5 0 Calma 8 Sudoeste 0 928.7 0.3 61
2017-07-26 00:00:00 16.1 3 Norte 10 Norte 0 928.8 1 54
2017-07-25 23:00:00 18 8 Este 20 Este 0 929.1 1.6 43
2017-07-25 22:00:00 19.4 6 Noroeste 21 Norte 0 928.4 1.1 38
2017-07-25 21:00:00 21.2 13 Norte 31 Norte 0 927.8 0.4 33
2017-07-25 20:00:00 22.9 15 Norte 35 Noroeste 0 927.5 -0.2 27
2017-07-25 19:00:00 23.7 15 Norte 37 Norte 0 927.3 -0.6 28
2017-07-25 18:00:00 25.9 16 Noroeste 33 Norte 0 927.4 -1 22
2017-07-25 17:00:00 25.7 13 Noroeste 35 Noroeste 0 927.7 -1 22
2017-07-25 16:00:00 25.4 13 Noroeste 31 Noroeste 0 927.9 -1.2 24
2017-07-25 15:00:00 24.4 13 Norte 30 Noroeste 0 928.4 -1.3 26
2017-07-25 14:00:00 23.8 11 Noroeste 28 Norte 0 928.7 -1.4 30
2017-07-25 13:00:00 23.3 6 Noroeste 28 Noroeste 0 929.1 -1.5 32
2017-07-25 12:00:00 21.7 5 Norte 20 Noroeste 0 929.7 -0.7 35
2017-07-25 11:00:00 19.7 8 Norte 20 Norte 0 930.1 -0.1 43
2017-07-25 10:00:00 18.3 7 Norte 18 Noroeste 0 930.6 0.6 51
2017-07-25 09:00:00 16.9 3 Noroeste 9 Oeste 0 930.4 0.2 57
2017-07-25 08:00:00 12.8 2 Oeste 6 Sudoeste 0 930.2 -0.1 73
2017-07-25 07:00:00 9.7 2 Sur 6 Sudoeste 0 930 -0.6 80
2017-07-25 06:00:00 11.2 3 Sudoeste 12 Noroeste 0 930.2 -0.8 77
2017-07-25 05:00:00 12.7 4 Norte 17 Noroeste 0 930.3 -0.8 75
2017-07-25 04:00:00 13.3 5 Nordeste 16 Norte 0 930.6 -0.7 72
2017-07-25 03:00:00 13.5 3 Noroeste 8 Norte 0 931 -0.4 73
2017-07-25 02:00:00 14.4 2 Sudoeste 13 Norte 0 931.1 -0.2 67
2017-07-25 01:00:00 15.5 5 Norte 14 Nordeste 0 931.3 0.7 65
2017-07-25 00:00:00 16.2 4 Norte 20 Norte 0 931.4 1.4 65
2017-07-24 23:00:00 17.9 6 Norte 26 Norte 0 931.3 1.7 56
2017-07-24 22:00:00 20.1 9 Norte 25 Norte 0 930.6 1.2 46
2017-07-24 21:00:00 23 8 Nordeste 30 Nordeste 0 930 0.4 38
2017-07-24 20:00:00 24.6 10 Nordeste 32 Este 0 929.6 -0.3 33
2017-07-24 19:00:00 26.4 9 Este 33 Este 0 929.4 -0.9 26
2017-07-24 18:00:00 27.6 9 Norte 27 Norte 0 929.6 -1.2 23
2017-07-24 17:00:00 26.8 6 Nordeste 25 Norte 0 929.9 -1 27
2017-07-24 16:00:00 27.7 4 Noroeste 27 Noroeste 0 930.3 -1 27
2017-07-24 15:00:00 25.8 10 Norte 26 Noroeste 0 930.8 -0.8 30
2017-07-24 14:00:00 25.3 10 Noroeste 26 Noroeste 0 930.9 -0.6 31
2017-07-24 13:00:00 24.3 10 Norte 27 Noroeste 0 931.3 -0.2 37
2017-07-24 12:00:00 23 8 Norte 23 Noroeste 0 931.6 0.3 45
2017-07-24 11:00:00 22.5 11 Norte 30 Noroeste 0 931.5 0.3 46
2017-07-24 10:00:00 21.1 7 Nordeste 18 Noroeste 0 931.5 0.5 53
2017-07-24 09:00:00 19.5 3 Sudoeste 8 Sudoeste 0 931.3 0.6 60
2017-07-24 08:00:00 14.5 2 Sudoeste 6 Sudoeste 0 931.2 0.8 75
2017-07-24 07:00:00 11.9 2 Sudoeste 6 Sudoeste 0 931 0.8 79
2017-07-24 06:00:00 12.2 3 Sudoeste 5 Sudoeste 0 930.7 0.8 77
2017-07-24 05:00:00 13.3 0 Calma 4 Sudoeste 0 930.4 0.5 73
2017-07-24 04:00:00 15.4 0 Calma 5 Nordeste 0 930.2 0.7 68
2017-07-24 03:00:00 16.4 3 Oeste 12 Noroeste 0 929.9 0.7 65
2017-07-24 02:00:00 17.1 3 Sudoeste 8 Oeste 0 929.9 1.1 61
2017-07-24 01:00:00 17.8 3 Sudoeste 11 Noroeste 0 929.5 0.9 51
2017-07-24 00:00:00 19 2 Oeste 20 Noroeste 0 929.2 0.7 43
2017-07-23 23:00:00 20.8 2 Sudoeste 5 Sudoeste 0 928.8 0.5 33
2017-07-23 22:00:00 24.3 0 Calma 14 Noroeste 0 928.6 0.4 28
2017-07-23 21:00:00 27 6 Oeste 27 Oeste 0 928.5 0.3 20
2017-07-23 20:00:00 28.6 5 Oeste 27 Noroeste 0 928.3 -0.4 17
2017-07-23 19:00:00 29.7 10 Noroeste 33 Oeste 0 928.2 -0.7 17
2017-07-23 18:00:00 30.5 8 Oeste 31 Noroeste 0 928.2 -1.2 18
2017-07-23 17:00:00 29.5 8 Oeste 27 Noroeste 0 928.7 -1.2 21
2017-07-23 16:00:00 29.2 8 Noroeste 31 Noroeste 0 928.9 -1.2 22
2017-07-23 15:00:00 29 9 Oeste 24 Noroeste 0 929.4 -0.8 24
2017-07-23 14:00:00 28.3 7 Oeste 23 Oeste 0 929.9 -0.1 25
2017-07-23 13:00:00 27.1 6 Oeste 20 Oeste 0 930.1 -0.1 29
2017-07-23 12:00:00 24.7 5 Oeste 21 Oeste 0 930.2 0.1 38
2017-07-23 11:00:00 22.8 5 Sudoeste 18 Sudoeste 0 930 0.1 44
2017-07-23 10:00:00 20.1 3 Sudeste 9 Sudeste 0 930.2 0.6 54
2017-07-23 09:00:00 16.8 5 Este 9 Sudeste 0 930.1 0.7 64
2017-07-23 08:00:00 13.2 2 Nordeste 4 Nordeste 0 929.9 0.8 75
2017-07-23 07:00:00 11 0 Calma 4 Nordeste 0 929.6 0.6 84
2017-07-23 06:00:00 11.5 0 Calma 5 Sudoeste 0 929.4 0.4 81
2017-07-23 05:00:00 12.5 2 Sudoeste 7 Sudoeste 0 929.1 0.3 80
2017-07-23 04:00:00 13.4 2 Sudoeste 8 Oeste 0 929 0.8 79
2017-07-23 03:00:00 14 2 Oeste 7 Oeste 0 929 1.3 75
2017-07-23 02:00:00 14.8 3 Sudoeste 6 Sudoeste 0 928.8 1.7 68
2017-07-23 01:00:00 15.9 0 Calma 8 Oeste 0 928.2 1.9 60
2017-07-23 00:00:00 17 2 Sudoeste 6 Sudoeste 0 927.7 1.9 48